CheckWX is a tool to help pilots better visualize weather data.  It is not intended as a substitute for an official pre-flight weather briefing.

10:01:34 UTC

ELLX METAR
Luxembourg-Findel International Airport
Luxembourg, Luxembourg
Current

12 mins ago

ELLX 200950Z VRB02KT 0100 R24/0700V1500U FG BKN000 03/03 Q1024 TEMPO 0800 FG
Observed
Feb-20 @ 09:50 UTC
Wind
  • Variable at 2 KTS
Visibility
97 meters
Flight Rules
LIFR
Conditions
Fog
Cloud Levels
  • Broken
Temperature
C / 37°F
Dewpoint
C / 37°F
Humidity
100%
Altimeter
30.24" Hg
Pressure
1023.92 hPa
Previous

42 mins ago

ELLX 200920Z 19003KT 130V240 0200 R24/0350N FG SCT000 03/03 Q1024 TEMPO 0800 FG
Observed
Feb-20 @ 09:20 UTC
Wind
  • 190° at 3 KTS
Visibility
193 meters
Flight Rules
LIFR
Conditions
Fog
Cloud Levels
  • Scattered
Temperature
C / 37°F
Dewpoint
C / 37°F
Humidity
100%
Altimeter
30.24" Hg
Pressure
1023.92 hPa
Previous

1 hour ago

ELLX 200850Z VRB02KT 0500 R24/0350V0750U FG SCT000 SCT019 03/03 Q1024 TEMPO 1500 BR
Observed
Feb-20 @ 08:50 UTC
Wind
  • Variable at 2 KTS
Visibility
499 meters
Flight Rules
LIFR
Conditions
Fog
Cloud Levels
  • Scattered
  • Scattered at 1,900' AGL
Temperature
C / 37°F
Dewpoint
C / 37°F
Humidity
100%
Altimeter
30.24" Hg
Pressure
1023.92 hPa